Milwaukee, Wisconsin
Current Conditions -  °F | °C
As of 7:52 AM on Friday 31 Oct 2014 (Local Time) from KMKE Reporting Station
Broken Clouds Broken Clouds  
Wind Chill: 27°   Ceiling: 3500
Heat Index: 36°   Visibility: 10mi
Dew Point: 27°   Wind: 15mph
Humidity: 70%   Direction: 340°NNW
Pressure: 30.11"   Gusts: 33mph
Location:  43.04°N, 87.91°W
Report Text: KMKE 311252Z 34013G29KT 10SM SCT026 BKN035 BKN085 BKN130 02/M03 A3011 RMK AO2 PK WND 33029/1246 SLP202 T00221028
Loading
Personal Weather Stations






























Interactive Weather Map
Tropical Storm Tracking
New forecast layout! Learn more

10-Day Weather Forecast

Advertisements
Track Severe Weather on mobile